Time;durP1;ratioP1;P1;durP2;ratioP2;P2;SDS_P1;SDS_P2;PMS_P1;PMS_P2;Temp;Humidity;BMP_temperature;BMP_pressure;BME280_temperature;BME280_humidity;BME280_pressure;Samples;Min_cycle;Max_cycle;Signal;HPM_P1;HPM_P2
2022/05/08 00:02:02;;;;;;;14.63;10.88;;;12.30;99.90;;;;;;4993787;28;20053;-72
2022/05/08 00:04:27;;;;;;;16.80;10.20;;;12.20;99.90;;;;;;4993898;28;20046;-73
2022/05/08 00:06:53;;;;;;;11.00;9.90;;;12.30;99.90;;;;;;4992907;28;20417;-72
2022/05/08 00:09:18;;;;;;;10.93;9.55;;;12.20;99.90;;;;;;5008949;28;20049;-73
2022/05/08 00:11:44;;;;;;;15.90;10.15;;;12.30;99.90;;;;;;4993670;28;20054;-73
2022/05/08 00:14:09;;;;;;;15.35;9.90;;;12.30;99.90;;;;;;4992911;28;20050;-73
2022/05/08 00:16:35;;;;;;;13.90;8.85;;;12.20;99.90;;;;;;4993848;28;20018;-73
2022/05/08 00:19:00;;;;;;;12.15;8.57;;;12.20;99.90;;;;;;4993917;28;20037;-72
2022/05/08 00:21:26;;;;;;;17.15;8.68;;;12.30;99.90;;;;;;4992886;28;20164;-72
2022/05/08 00:23:52;;;;;;;14.77;8.55;;;12.70;99.90;;;;;;4994518;28;20466;-72
2022/05/08 00:26:18;;;;;;;13.05;8.32;;;12.30;99.90;;;;;;4993480;28;20023;-72
2022/05/08 00:28:44;;;;;;;10.98;7.80;;;12.40;99.90;;;;;;4992848;28;20030;-73
2022/05/08 00:31:10;;;;;;;15.57;8.25;;;12.30;99.90;;;;;;4993292;28;20381;-73
2022/05/08 00:33:37;;;;;;;12.95;8.13;;;12.30;99.90;;;;;;4993205;28;20390;-73
2022/05/08 00:36:03;;;;;;;10.95;7.80;;;12.30;99.90;;;;;;4992724;28;20026;-73
2022/05/08 00:38:29;;;;;;;17.42;9.23;;;12.40;99.90;;;;;;4993249;28;20030;-73
2022/05/08 00:40:54;;;;;;;10.70;8.07;;;12.40;99.90;;;;;;4992598;28;20118;-73
2022/05/08 00:43:38;;;;;;;19.77;8.05;;;12.30;99.90;;;;;;4993019;28;20081;-73
2022/05/08 00:46:12;;;;;;;14.57;8.38;;;12.30;99.90;;;;;;4993039;28;20022;-73
2022/05/08 00:48:38;;;;;;;14.10;8.40;;;12.30;99.90;;;;;;4992389;28;20034;-73
2022/05/08 00:51:12;;;;;;;12.30;8.10;;;12.30;99.90;;;;;;4992698;28;20437;-73
2022/05/08 00:53:42;;;;;;;19.80;10.57;;;12.20;99.90;;;;;;4993274;28;20037;-73
2022/05/08 00:56:10;;;;;;;16.20;8.30;;;12.30;99.90;;;;;;4992998;28;20043;-73
2022/05/08 00:58:38;;;;;;;13.75;8.48;;;12.20;99.90;;;;;;4999073;28;20045;-74
2022/05/08 01:01:05;;;;;;;14.40;8.48;;;12.20;99.90;;;;;;4992811;28;20112;-73
2022/05/08 01:03:31;;;;;;;20.23;10.07;;;12.30;99.90;;;;;;4992294;28;20034;-73
2022/05/08 01:05:59;;;;;;;13.43;9.27;;;12.20;99.90;;;;;;4992541;28;20034;-73
2022/05/08 01:08:25;;;;;;;14.95;8.32;;;12.30;99.90;;;;;;4992850;28;20114;-73
2022/05/08 01:10:53;;;;;;;14.48;8.80;;;12.30;99.90;;;;;;4991973;28;20134;-73
2022/05/08 01:13:19;;;;;;;15.05;8.13;;;12.30;99.90;;;;;;4992894;28;20027;-72
2022/05/08 01:15:47;;;;;;;12.23;8.32;;;12.30;99.90;;;;;;4992741;28;20026;-73
2022/05/08 01:18:14;;;;;;;15.27;7.97;;;12.20;99.90;;;;;;4992696;28;20030;-72
2022/05/08 01:20:43;;;;;;;11.32;7.90;;;12.20;99.90;;;;;;4999268;28;20069;-72
2022/05/08 01:23:10;;;;;;;17.30;8.43;;;12.10;99.90;;;;;;4998138;28;20125;-73
2022/05/08 01:26:01;;;;;;;12.25;7.90;;;12.10;99.90;;;;;;4999264;28;20033;-72
2022/05/08 01:28:29;;;;;;;15.95;8.68;;;12.00;99.90;;;;;;4999458;28;20031;-72
2022/05/08 01:30:55;;;;;;;11.02;7.72;;;11.90;99.90;;;;;;4998146;28;20030;-72
2022/05/08 01:33:22;;;;;;;13.73;8.38;;;12.00;99.90;;;;;;4999128;28;20029;-73
2022/05/08 01:35:49;;;;;;;17.00;9.35;;;12.00;99.90;;;;;;4998952;28;20034;-73
2022/05/08 01:38:16;;;;;;;12.75;8.02;;;11.90;99.90;;;;;;4998369;28;20382;-73
2022/05/08 01:40:45;;;;;;;10.32;8.35;;;11.90;99.90;;;;;;4998986;28;20034;-73
2022/05/08 01:43:11;;;;;;;14.00;7.35;;;11.80;99.90;;;;;;4998859;28;20121;-72
2022/05/08 01:45:38;;;;;;;16.08;7.47;;;11.80;99.90;;;;;;4998398;28;20026;-72
2022/05/08 01:48:22;;;;;;;17.65;8.05;;;11.70;99.90;;;;;;4998909;28;20030;-72
2022/05/08 01:50:56;;;;;;;18.88;8.85;;;11.70;99.90;;;;;;4998802;28;20026;-73
2022/05/08 01:53:23;;;;;;;14.65;7.07;;;11.70;99.90;;;;;;4998337;28;20034;-72
2022/05/08 01:55:52;;;;;;;14.30;6.65;;;11.60;99.90;;;;;;4998654;28;20077;-72
2022/05/08 01:58:18;;;;;;;13.60;6.35;;;11.60;99.90;;;;;;4998607;28;20046;-72
2022/05/08 02:00:45;;;;;;;15.38;5.15;;;11.60;99.90;;;;;;4998903;28;20104;-73
2022/05/08 02:03:12;;;;;;;19.15;4.85;;;11.50;99.90;;;;;;4998608;28;20058;-73
2022/05/08 02:05:40;;;;;;;15.02;4.93;;;11.40;99.90;;;;;;4997938;28;20413;-72
2022/05/08 02:08:07;;;;;;;21.77;5.18;;;11.40;99.90;;;;;;4998705;28;20038;-72
2022/05/08 02:10:32;;;;;;;19.15;3.97;;;11.30;99.90;;;;;;4998522;28;20452;-73
2022/05/08 02:12:58;;;;;;;27.13;4.85;;;11.20;99.90;;;;;;4997866;28;20105;-72
2022/05/08 02:15:29;;;;;;;15.50;3.63;;;11.10;99.90;;;;;;4998895;28;20545;-72
2022/05/08 02:17:57;;;;;;;17.85;4.25;;;11.10;99.90;;;;;;4998421;28;20027;-72
2022/05/08 02:20:23;;;;;;;18.05;4.93;;;11.00;99.90;;;;;;4998028;28;20030;-72
2022/05/08 02:22:49;;;;;;;20.90;4.05;;;10.90;99.90;;;;;;4998593;28;20026;-72
2022/05/08 02:25:14;;;;;;;20.73;4.32;;;10.90;99.90;;;;;;4998822;28;20045;-73
2022/05/08 02:27:41;;;;;;;17.23;4.15;;;10.40;99.90;;;;;;4998212;28;20394;-73
2022/05/08 02:30:11;;;;;;;24.02;3.58;;;10.80;99.90;;;;;;4997641;28;20458;-73
2022/05/08 02:32:38;;;;;;;20.73;3.50;;;10.80;99.90;;;;;;4995265;28;20545;-72
2022/05/08 02:35:09;;;;;;;14.93;3.55;;;10.70;99.90;;;;;;4994626;28;20080;-72
2022/05/08 02:37:34;;;;;;;16.80;3.65;;;10.80;99.90;;;;;;4995605;28;20030;-72
2022/05/08 02:40:00;;;;;;;24.67;4.90;;;10.60;99.90;;;;;;4995430;28;20490;-73
2022/05/08 02:42:27;;;;;;;22.20;4.50;;;10.60;99.90;;;;;;4994799;28;20545;-73
2022/05/08 02:44:52;;;;;;;19.83;3.70;;;10.60;99.90;;;;;;4995061;28;20042;-73
2022/05/08 02:47:18;;;;;;;16.92;3.50;;;10.60;99.90;;;;;;4995257;28;20030;-72
2022/05/08 02:49:44;;;;;;;19.75;4.10;;;10.50;99.90;;;;;;4994742;28;20054;-73
2022/05/08 02:52:09;;;;;;;21.90;3.97;;;10.50;99.90;;;;;;4995185;28;20026;-73
2022/05/08 02:54:35;;;;;;;22.42;3.53;;;10.40;99.90;;;;;;4995331;28;20026;-73
2022/05/08 02:59:55;;;;;;;19.73;3.50;;;10.40;99.90;;;;;;5029738;28;20039;-73
2022/05/08 03:02:21;;;;;;;23.75;3.70;;;10.30;99.90;;;;;;5013757;28;20113;-73
2022/05/08 03:04:46;;;;;;;29.58;4.40;;;10.30;99.90;;;;;;5014704;28;20026;-72
2022/05/08 03:07:12;;;;;;;18.38;3.83;;;10.30;99.90;;;;;;5014372;28;20064;-72
2022/05/08 03:09:38;;;;;;;19.65;4.38;;;10.30;99.90;;;;;;5013898;28;20109;-72
2022/05/08 03:12:04;;;;;;;16.70;3.50;;;10.30;99.90;;;;;;5014085;28;20121;-72
2022/05/08 03:14:30;;;;;;;23.20;3.83;;;10.20;99.90;;;;;;5014276;28;20053;-72
2022/05/08 03:16:56;;;;;;;18.67;3.88;;;10.20;99.90;;;;;;5013540;28;20030;-73
2022/05/08 03:19:22;;;;;;;27.38;4.47;;;10.20;99.90;;;;;;5014212;28;20034;-73
2022/05/08 03:21:51;;;;;;;13.43;3.13;;;10.00;99.90;;;;;;5014157;28;20084;-73
2022/05/08 03:24:17;;;;;;;19.75;3.65;;;10.00;99.90;;;;;;5013580;28;20045;-73
2022/05/08 03:26:43;;;;;;;22.40;3.38;;;10.00;99.90;;;;;;5014117;28;20116;-73
2022/05/08 03:29:08;;;;;;;24.27;6.63;;;10.00;99.90;;;;;;5013909;28;20064;-73
2022/05/08 03:31:34;;;;;;;27.50;3.88;;;10.00;99.90;;;;;;5013509;28;20037;-73
2022/05/08 03:34:00;;;;;;;25.33;4.72;;;9.90;99.90;;;;;;5013915;28;20026;-71
2022/05/08 03:36:25;;;;;;;23.55;4.47;;;9.90;99.90;;;;;;5014087;28;20033;-72
2022/05/08 03:38:51;;;;;;;27.05;5.93;;;9.90;99.90;;;;;;5012936;28;20033;-71
2022/05/08 03:41:17;;;;;;;22.38;3.85;;;9.90;99.90;;;;;;5013584;28;20494;-71
2022/05/08 03:43:46;;;;;;;18.48;4.35;;;9.90;99.90;;;;;;5013727;28;20050;-72
2022/05/08 03:46:13;;;;;;;20.27;4.83;;;9.80;99.90;;;;;;5013493;28;20026;-72
2022/05/08 03:48:39;;;;;;;21.58;4.15;;;9.70;99.90;;;;;;5013840;28;20033;-72
2022/05/08 03:51:05;;;;;;;23.25;4.25;;;9.60;99.90;;;;;;5012661;28;20453;-72
2022/05/08 03:53:30;;;;;;;18.83;3.25;;;9.50;99.90;;;;;;5013645;28;20022;-73
2022/05/08 03:55:56;;;;;;;32.58;4.70;;;9.50;99.90;;;;;;5012910;28;20033;-72
2022/05/08 03:58:21;;;;;;;28.33;4.47;;;9.40;99.90;;;;;;5012726;28;20029;-71
2022/05/08 04:00:47;;;;;;;22.63;4.85;;;9.40;99.90;;;;;;5013534;28;20037;-72
2022/05/08 04:03:13;;;;;;;27.92;4.78;;;9.40;99.90;;;;;;5015428;28;20037;-73
2022/05/08 04:05:38;;;;;;;23.02;3.53;;;9.30;99.90;;;;;;5012753;28;20028;-72
2022/05/08 04:08:04;;;;;;;25.20;3.25;;;9.30;99.90;;;;;;5013210;28;20076;-72
2022/05/08 04:10:30;;;;;;;17.92;4.13;;;9.30;99.90;;;;;;5013248;28;20389;-72
2022/05/08 04:12:55;;;;;;;28.13;4.90;;;9.20;99.90;;;;;;5012373;28;20042;-72
2022/05/08 04:18:09;;;;;;;22.38;4.07;;;9.10;99.90;;;;;;5021028;28;20121;-72
2022/05/08 04:20:36;;;;;;;17.20;3.30;;;9.20;99.90;;;;;;5012481;28;20104;-72
2022/05/08 04:25:46;;;;;;;20.60;4.53;;;9.20;99.90;;;;;;5012939;28;20036;-72
2022/05/08 04:28:12;;;;;;;21.00;3.58;;;9.10;99.90;;;;;;5012315;28;20382;-72
2022/05/08 04:30:38;;;;;;;24.40;5.00;;;9.10;99.90;;;;;;5012960;28;20468;-72
2022/05/08 04:33:03;;;;;;;26.88;5.13;;;9.10;99.90;;;;;;5012040;28;20526;-72
2022/05/08 04:35:29;;;;;;;20.48;6.25;;;9.10;99.90;;;;;;5013296;28;20037;-72
2022/05/08 04:37:55;;;;;;;26.27;4.07;;;9.00;99.90;;;;;;5012921;28;20021;-72
2022/05/08 04:40:20;;;;;;;25.20;4.13;;;9.00;99.90;;;;;;5012716;28;20579;-72
2022/05/08 04:42:46;;;;;;;24.55;4.13;;;9.00;99.90;;;;;;5013482;28;20496;-73
2022/05/08 04:45:11;;;;;;;31.83;4.95;;;9.00;99.90;;;;;;5012620;28;20026;-72
2022/05/08 04:47:37;;;;;;;31.45;4.97;;;9.00;99.90;;;;;;5012556;28;20396;-71
2022/05/08 04:50:03;;;;;;;13.07;3.35;;;9.10;99.90;;;;;;5013751;28;20108;-72
2022/05/08 04:52:28;;;;;;;17.52;3.70;;;9.10;99.90;;;;;;5012569;28;20540;-72
2022/05/08 04:54:54;;;;;;;20.83;4.47;;;9.10;99.90;;;;;;5011218;28;20053;-72
2022/05/08 04:57:19;;;;;;;23.42;5.82;;;9.10;99.90;;;;;;5012397;28;20508;-72
2022/05/08 04:59:45;;;;;;;21.60;4.22;;;9.20;99.90;;;;;;5012544;28;20489;-72
2022/05/08 05:02:10;;;;;;;28.52;4.50;;;9.10;99.90;;;;;;5011657;28;20026;-72
2022/05/08 05:04:36;;;;;;;24.58;4.88;;;9.10;99.90;;;;;;5012399;28;20034;-72
2022/05/08 05:07:02;;;;;;;22.17;4.65;;;9.10;99.90;;;;;;5012028;28;20030;-72
2022/05/08 05:09:27;;;;;;;16.08;3.65;;;9.10;99.90;;;;;;5011668;28;20033;-73
2022/05/08 05:11:53;;;;;;;17.33;3.88;;;9.20;99.90;;;;;;5011857;28;20034;-73
2022/05/08 05:14:19;;;;;;;19.88;4.45;;;9.20;99.90;;;;;;5012520;28;20022;-72
2022/05/08 05:16:46;;;;;;;16.83;3.83;;;9.20;99.90;;;;;;5011709;28;20113;-72
2022/05/08 05:19:13;;;;;;;23.95;4.97;;;9.30;99.90;;;;;;5011944;28;20026;-72
2022/05/08 05:21:38;;;;;;;21.33;4.18;;;9.30;99.90;;;;;;5012251;28;20030;-72
2022/05/08 05:24:05;;;;;;;18.55;3.97;;;9.40;99.90;;;;;;5011263;28;20038;-72
2022/05/08 05:26:30;;;;;;;20.50;3.88;;;9.40;99.90;;;;;;5012200;28;20026;-72
2022/05/08 05:28:56;;;;;;;20.35;4.68;;;9.50;99.90;;;;;;5012030;28;20030;-72
2022/05/08 05:31:21;;;;;;;23.95;3.83;;;9.50;99.90;;;;;;5011472;28;20022;-72
2022/05/08 05:33:47;;;;;;;27.48;4.55;;;9.50;99.90;;;;;;5013303;28;20359;-73
2022/05/08 05:36:13;;;;;;;17.63;4.40;;;9.60;99.90;;;;;;5013947;28;20056;-73
2022/05/08 05:38:39;;;;;;;28.00;4.38;;;9.60;99.90;;;;;;5024042;28;20079;-72
2022/05/08 05:41:05;;;;;;;14.93;3.63;;;9.60;99.90;;;;;;5029521;28;20025;-73
2022/05/08 05:43:32;;;;;;;28.40;5.10;;;9.70;99.90;;;;;;5023150;28;20041;-73
2022/05/08 05:48:41;;;;;;;31.13;5.32;;;9.70;99.90;;;;;;5029443;28;20079;-73
2022/05/08 05:51:06;;;;;;;20.48;4.93;;;9.40;99.90;;;;;;5029517;28;20029;-73
2022/05/08 05:53:33;;;;;;;21.80;4.75;;;9.80;99.90;;;;;;5027908;28;20022;-73
2022/05/08 05:55:59;;;;;;;17.45;4.05;;;9.80;99.90;;;;;;5030852;28;20028;-73
2022/05/08 05:58:24;;;;;;;27.15;5.38;;;9.90;99.90;;;;;;5024294;28;20025;-73
2022/05/08 06:00:50;;;;;;;24.02;3.97;;;9.90;99.90;;;;;;5028286;28;20030;-73
2022/05/08 06:03:15;;;;;;;23.42;4.53;;;10.00;99.90;;;;;;5028981;28;20124;-72
2022/05/08 06:05:41;;;;;;;32.28;4.82;;;10.00;99.90;;;;;;5030564;28;20034;-73
2022/05/08 06:08:07;;;;;;;11.60;3.85;;;10.10;99.90;;;;;;5031574;28;20488;-72
2022/05/08 06:10:33;;;;;;;25.92;4.28;;;10.20;99.90;;;;;;5033257;28;20018;-72
2022/05/08 06:12:58;;;;;;;18.52;4.35;;;10.20;99.90;;;;;;5031848;28;20328;-73
2022/05/08 06:15:24;;;;;;;14.80;3.67;;;10.20;99.90;;;;;;5033513;28;20026;-72
2022/05/08 06:17:49;;;;;;;13.48;3.42;;;10.30;99.90;;;;;;5033746;28;20061;-73
2022/05/08 06:20:15;;;;;;;29.20;5.20;;;10.30;99.90;;;;;;5033310;28;20026;-72
2022/05/08 06:22:40;;;;;;;19.48;4.53;;;10.40;99.90;;;;;;5033554;28;20132;-72
2022/05/08 06:25:06;;;;;;;16.48;4.80;;;10.40;99.90;;;;;;5033467;28;20104;-73
2022/05/08 06:27:32;;;;;;;26.00;4.85;;;10.40;99.90;;;;;;5033046;28;20393;-73
2022/05/08 06:29:59;;;;;;;26.17;5.43;;;10.50;99.90;;;;;;5033572;28;20176;-73
2022/05/08 06:32:24;;;;;;;20.13;4.22;;;10.60;99.90;;;;;;5033399;28;20037;-73
2022/05/08 06:34:50;;;;;;;16.55;4.10;;;10.60;99.90;;;;;;5032501;28;20032;-73
2022/05/08 06:37:16;;;;;;;22.77;4.80;;;10.60;99.90;;;;;;5033865;28;20107;-74
2022/05/08 06:39:41;;;;;;;22.00;4.07;;;10.60;99.90;;;;;;5032542;28;20155;-72
2022/05/08 06:42:07;;;;;;;9.23;3.50;;;10.70;99.90;;;;;;5033003;28;20017;-73
2022/05/08 06:44:32;;;;;;;18.25;3.88;;;10.80;99.90;;;;;;5034195;28;20036;-72
2022/05/08 06:46:59;;;;;;;16.45;2.78;;;10.80;99.90;;;;;;5033103;28;20025;-72
2022/05/08 06:49:24;;;;;;;15.75;3.20;;;10.90;99.90;;;;;;5032278;28;20025;-72
2022/05/08 06:51:50;;;;;;;17.85;3.72;;;10.90;99.90;;;;;;5033296;28;20083;-73
2022/05/08 06:54:16;;;;;;;15.52;3.20;;;10.90;99.90;;;;;;5031080;28;20084;-72
2022/05/08 06:56:41;;;;;;;14.30;3.83;;;11.00;99.90;;;;;;5033097;28;20081;-73
2022/05/08 07:01:53;;;;;;;14.60;3.45;;;11.10;99.90;;;;;;5033088;28;20626;-72
2022/05/08 07:04:18;;;;;;;14.90;3.88;;;11.20;99.90;;;;;;5025311;28;20124;-72
2022/05/08 07:06:44;;;;;;;19.40;4.20;;;11.20;99.90;;;;;;5036774;28;20052;-73
2022/05/08 07:09:09;;;;;;;21.52;3.40;;;11.30;99.90;;;;;;5032801;28;20025;-73
2022/05/08 07:11:37;;;;;;;13.27;3.75;;;11.30;99.90;;;;;;5032734;28;20025;-73
2022/05/08 07:14:03;;;;;;;9.57;2.90;;;11.40;99.90;;;;;;5032401;28;20053;-72
2022/05/08 07:16:29;;;;;;;12.40;3.58;;;11.40;99.90;;;;;;5031383;28;20017;-72
2022/05/08 07:18:54;;;;;;;15.35;3.10;;;11.50;99.90;;;;;;5032413;28;20083;-72
2022/05/08 07:21:20;;;;;;;12.25;2.95;;;11.60;99.90;;;;;;5032978;28;20017;-73
2022/05/08 07:23:46;;;;;;;17.60;3.33;;;11.60;99.90;;;;;;5030626;28;20405;-73
2022/05/08 07:26:13;;;;;;;19.67;3.78;;;11.70;99.90;;;;;;5031378;28;20037;-74
2022/05/08 07:28:38;;;;;;;13.32;3.22;;;11.70;99.90;;;;;;5031998;28;20457;-73
2022/05/08 07:31:04;;;;;;;12.55;2.97;;;11.70;99.90;;;;;;5027552;28;20104;-73
2022/05/08 07:33:35;;;;;;;15.65;3.55;;;11.70;99.90;;;;;;5031515;28;20469;-73
2022/05/08 07:36:14;;;;;;;18.33;2.70;;;11.80;99.90;;;;;;5027645;28;20033;-73
2022/05/08 07:38:45;;;;;;;13.50;3.17;;;11.80;99.90;;;;;;5031069;28;20428;-74
2022/05/08 07:41:12;;;;;;;16.80;3.22;;;11.90;99.90;;;;;;5030696;28;20405;-73
2022/05/08 07:43:38;;;;;;;13.75;3.40;;;11.90;99.90;;;;;;5026843;28;20505;-73
2022/05/08 07:46:05;;;;;;;17.60;3.63;;;12.00;99.90;;;;;;5026926;28;20025;-73
2022/05/08 07:48:31;;;;;;;13.10;2.95;;;12.10;99.90;;;;;;5033493;28;20052;-73
2022/05/08 07:50:59;;;;;;;14.35;3.55;;;12.00;99.90;;;;;;5032270;28;20056;-73
2022/05/08 07:53:25;;;;;;;12.15;3.05;;;12.10;99.90;;;;;;5033166;28;20081;-72
2022/05/08 07:55:54;;;;;;;12.73;3.10;;;12.20;99.90;;;;;;5031902;28;20036;-72
2022/05/08 07:58:23;;;;;;;11.38;3.35;;;12.30;99.90;;;;;;5025721;28;20048;-72
2022/05/08 08:00:49;;;;;;;9.48;3.03;;;12.30;99.90;;;;;;5026530;28;20103;-74
2022/05/08 08:03:17;;;;;;;16.85;2.80;;;12.30;99.90;;;;;;5031719;28;20029;-74
2022/05/08 08:05:43;;;;;;;19.60;4.18;;;12.40;99.90;;;;;;5030787;28;20371;-73
2022/05/08 08:08:08;;;;;;;16.65;3.10;;;12.40;99.90;;;;;;5031596;28;20087;-74
2022/05/08 08:10:34;;;;;;;12.95;3.15;;;12.40;99.90;;;;;;5026819;28;20431;-72
2022/05/08 08:13:00;;;;;;;15.40;3.72;;;12.50;99.90;;;;;;5031208;28;20596;-72
2022/05/08 08:15:25;;;;;;;17.50;3.33;;;12.30;99.90;;;;;;5033007;28;20032;-72
2022/05/08 08:17:51;;;;;;;12.75;3.58;;;12.50;99.90;;;;;;5032689;28;20041;-72
2022/05/08 08:20:16;;;;;;;12.00;2.90;;;12.50;99.90;;;;;;5032143;28;20022;-72
2022/05/08 08:22:42;;;;;;;13.35;3.30;;;12.60;99.90;;;;;;5032580;28;20388;-73
2022/05/08 08:25:08;;;;;;;10.00;2.88;;;12.60;99.90;;;;;;5031916;28;20376;-71
2022/05/08 08:27:33;;;;;;;17.52;3.92;;;12.70;99.90;;;;;;5031001;28;20022;-71
2022/05/08 08:29:59;;;;;;;12.98;3.05;;;12.70;99.90;;;;;;4998158;28;20037;-72
2022/05/08 08:32:26;;;;;;;18.65;3.58;;;12.60;99.90;;;;;;5002955;28;20410;-71
2022/05/08 08:34:53;;;;;;;11.38;3.10;;;12.60;99.90;;;;;;5003640;28;20048;-71
2022/05/08 08:37:19;;;;;;;11.65;2.83;;;12.70;99.90;;;;;;4995425;28;20030;-72
2022/05/08 08:39:45;;;;;;;13.18;3.05;;;12.70;99.90;;;;;;4993217;28;20109;-71
2022/05/08 08:42:28;;;;;;;17.58;3.60;;;12.80;99.90;;;;;;4992084;28;20152;-73
2022/05/08 08:47:53;;;;;;;13.13;3.63;;;12.80;99.90;;;;;;5005448;28;20029;-71
2022/05/08 08:50:23;;;;;;;15.18;4.07;;;12.90;99.90;;;;;;5008790;28;20040;-72
2022/05/08 08:52:49;;;;;;;16.25;3.55;;;12.90;99.90;;;;;;5018107;28;20041;-71
2022/05/08 08:55:16;;;;;;;11.57;3.35;;;12.90;99.90;;;;;;5024405;28;20027;-71
2022/05/08 08:57:43;;;;;;;11.38;3.05;;;13.00;99.90;;;;;;5030171;28;20060;-71
2022/05/08 09:00:09;;;;;;;13.25;3.75;;;13.00;99.90;;;;;;5031264;28;20029;-72
2022/05/08 09:02:34;;;;;;;11.82;3.15;;;13.00;99.90;;;;;;5028917;28;21283;-71
2022/05/08 09:05:04;;;;;;;17.40;3.95;;;13.10;99.90;;;;;;5030651;28;20036;-73
2022/05/08 09:07:42;;;;;;;16.58;4.00;;;13.10;99.90;;;;;;5030811;28;20466;-72
2022/05/08 09:10:25;;;;;;;14.50;3.38;;;13.20;99.90;;;;;;5031151;28;20187;-72
2022/05/08 09:12:56;;;;;;;10.20;3.13;;;13.20;99.90;;;;;;5025374;28;20038;-72
2022/05/08 09:15:24;;;;;;;11.77;2.95;;;13.20;99.90;;;;;;5030882;28;20036;-72
2022/05/08 09:17:55;;;;;;;9.85;3.05;;;13.30;99.90;;;;;;5025358;28;20429;-72
2022/05/08 09:20:29;;;;;;;22.35;3.55;;;13.40;99.90;;;;;;5027628;28;20061;-73
2022/05/08 09:23:01;;;;;;;11.43;3.20;;;13.50;99.90;;;;;;5029303;28;20087;-72
2022/05/08 09:25:47;;;;;;;8.27;2.88;;;13.50;99.90;;;;;;5030727;28;20021;-71
2022/05/08 09:28:17;;;;;;;10.43;3.72;;;13.50;99.90;;;;;;5031477;28;20121;-72
2022/05/08 09:31:06;;;;;;;15.82;3.17;;;13.60;99.90;;;;;;5031321;28;20029;-71
2022/05/08 09:33:35;;;;;;;12.63;3.25;;;13.60;99.90;;;;;;5031798;28;20026;-71
2022/05/08 09:36:09;;;;;;;9.50;3.07;;;13.70;99.90;;;;;;5031036;28;20115;-72
2022/05/08 09:38:42;;;;;;;18.38;4.00;;;13.70;99.90;;;;;;5032028;28;20029;-71
2022/05/08 09:41:08;;;;;;;10.80;3.53;;;13.80;99.90;;;;;;5034627;28;20033;-71
2022/05/08 09:43:34;;;;;;;12.90;3.67;;;13.90;99.90;;;;;;5034962;28;20068;-72
2022/05/08 09:46:01;;;;;;;8.52;3.45;;;14.00;99.90;;;;;;5035579;28;20072;-72
2022/05/08 09:48:28;;;;;;;9.88;2.80;;;14.10;99.90;;;;;;5035966;28;20113;-71
2022/05/08 09:50:58;;;;;;;6.63;2.53;;;14.20;99.90;;;;;;5034864;28;20029;-71
2022/05/08 09:53:25;;;;;;;13.93;3.55;;;14.30;99.90;;;;;;5035016;28;20059;-71
2022/05/08 09:55:55;;;;;;;12.75;2.90;;;14.30;99.90;;;;;;5034979;28;20088;-72
2022/05/08 09:58:21;;;;;;;5.72;2.70;;;14.30;99.90;;;;;;5035010;28;20057;-70
2022/05/08 10:00:48;;;;;;;9.15;2.78;;;14.30;99.90;;;;;;5035187;28;20095;-71
2022/05/08 10:03:19;;;;;;;17.98;4.20;;;14.30;99.00;;;;;;5035435;28;20038;-71
2022/05/08 10:05:46;;;;;;;8.05;3.22;;;14.20;99.80;;;;;;5035154;28;20033;-71
2022/05/08 10:08:21;;;;;;;14.13;3.05;;;14.20;99.90;;;;;;5034911;28;20022;-71
2022/05/08 10:13:58;;;;;;;7.60;2.85;;;14.30;99.90;;;;;;5034635;28;20500;-71
2022/05/08 10:16:50;;;;;;;12.07;3.13;;;14.40;99.90;;;;;;5035182;28;20044;-70
2022/05/08 10:19:21;;;;;;;14.07;3.45;;;14.40;99.80;;;;;;5033206;28;20041;-71
2022/05/08 10:24:47;;;;;;;11.32;3.13;;;14.50;99.90;;;;;;5035154;28;20092;-71
2022/05/08 10:27:22;;;;;;;8.77;2.92;;;14.70;99.90;;;;;;5035100;28;20029;-71
2022/05/08 10:29:48;;;;;;;13.27;3.67;;;14.70;99.80;;;;;;5034608;28;20037;-70
2022/05/08 10:32:34;;;;;;;11.27;3.22;;;14.80;99.50;;;;;;5034226;28;20025;-70
2022/05/08 10:35:22;;;;;;;8.88;2.90;;;14.90;98.60;;;;;;5034413;28;20030;-71
2022/05/08 10:38:16;;;;;;;10.43;2.90;;;14.90;98.50;;;;;;5034649;28;20033;-71
2022/05/08 10:40:42;;;;;;;6.20;2.40;;;15.00;99.00;;;;;;5033965;28;20055;-71
2022/05/08 10:43:10;;;;;;;7.75;2.75;;;15.10;98.90;;;;;;5034451;28;20508;-71
2022/05/08 10:45:40;;;;;;;12.07;3.10;;;15.20;98.00;;;;;;5034722;28;20108;-70
2022/05/08 10:48:21;;;;;;;9.98;2.83;;;15.20;98.10;;;;;;5033756;28;20034;-71
2022/05/08 10:50:50;;;;;;;6.05;2.33;;;15.30;98.00;;;;;;5034328;28;20108;-71
2022/05/08 10:53:26;;;;;;;12.05;2.90;;;15.20;97.70;;;;;;5033346;28;20021;-71
2022/05/08 10:55:58;;;;;;;8.48;2.72;;;15.30;98.30;;;;;;5034148;28;20036;-71
2022/05/08 10:58:24;;;;;;;7.70;2.97;;;15.30;97.50;;;;;;5034535;28;20097;-71
2022/05/08 11:00:55;;;;;;;7.43;2.85;;;15.30;97.40;;;;;;5033565;28;20109;-71
2022/05/08 11:03:21;;;;;;;12.80;3.50;;;15.30;97.50;;;;;;5034645;28;20079;-71
2022/05/08 11:05:47;;;;;;;12.75;2.78;;;15.30;98.30;;;;;;5034610;28;20351;-71
2022/05/08 11:08:21;;;;;;;7.07;3.15;;;15.40;98.10;;;;;;5033732;28;20080;-71
2022/05/08 11:10:56;;;;;;;12.98;2.85;;;15.40;98.30;;;;;;5034396;28;20045;-72
2022/05/08 11:13:22;;;;;;;8.60;2.65;;;15.50;97.30;;;;;;5034296;28;20083;-71
2022/05/08 11:15:49;;;;;;;9.77;2.45;;;15.50;97.30;;;;;;5033330;28;20026;-71
2022/05/08 11:18:23;;;;;;;6.32;2.28;;;15.50;97.50;;;;;;5034511;28;20025;-71
2022/05/08 11:20:53;;;;;;;11.20;3.35;;;15.60;97.70;;;;;;5033808;28;20053;-71
2022/05/08 11:23:20;;;;;;;7.85;2.40;;;15.60;97.90;;;;;;5033473;28;20126;-71
2022/05/08 11:25:49;;;;;;;18.35;2.65;;;15.60;98.30;;;;;;5033899;28;20022;-71
2022/05/08 11:28:20;;;;;;;16.02;3.63;;;15.70;97.40;;;;;;5033020;28;20026;-71
2022/05/08 11:30:46;;;;;;;;;;;15.80;97.60;;;;;;5034441;28;20029;-71
2022/05/08 11:36:09;;;;;;;5.60;2.85;;;15.90;98.00;;;;;;5033054;28;20136;-71
2022/05/08 11:38:50;;;;;;;13.00;2.65;;;15.90;97.60;;;;;;5033826;28;20021;-71
2022/05/08 11:41:18;;;;;;;7.50;2.60;;;16.00;97.30;;;;;;5033836;28;20401;-71
2022/05/08 11:43:45;;;;;;;16.10;3.17;;;15.90;97.20;;;;;;5033122;28;20041;-71
2022/05/08 11:46:15;;;;;;;8.40;2.75;;;15.90;97.10;;;;;;5033482;28;20057;-71
2022/05/08 11:48:41;;;;;;;6.30;2.60;;;15.80;97.10;;;;;;5033705;28;20105;-70
2022/05/08 11:51:11;;;;;;;9.48;2.83;;;15.80;97.40;;;;;;5032518;28;20377;-71
2022/05/08 11:53:46;;;;;;;13.40;3.33;;;15.90;97.40;;;;;;5033815;28;20033;-70
2022/05/08 11:56:21;;;;;;;8.45;2.47;;;16.00;96.70;;;;;;5032493;28;20033;-71
2022/05/08 11:58:49;;;;;;;10.52;2.47;;;16.00;97.10;;;;;;5033466;28;20033;-71
2022/05/08 12:01:47;;;;;;;10.23;3.63;;;16.10;97.00;;;;;;5033421;28;20026;-71
2022/05/08 12:04:23;;;;;;;8.77;2.38;;;16.20;96.40;;;;;;5032015;28;20045;-71
2022/05/08 12:06:59;;;;;;;11.50;2.72;;;16.20;96.90;;;;;;5033095;28;20025;-71
2022/05/08 12:09:29;;;;;;;9.68;2.70;;;16.20;97.60;;;;;;5033304;28;20088;-71
2022/05/08 12:11:55;;;;;;;4.28;2.10;;;16.30;97.90;;;;;;5032137;28;20116;-72
2022/05/08 12:14:31;;;;;;;10.55;3.83;;;16.30;98.30;;;;;;5033249;28;20117;-71
2022/05/08 12:17:02;;;;;;;9.85;2.35;;;16.30;97.40;;;;;;5032944;28;20044;-72
2022/05/08 12:19:28;;;;;;;10.27;2.53;;;16.20;97.30;;;;;;5032259;28;20394;-72
2022/05/08 12:21:54;;;;;;;6.40;2.42;;;16.20;97.80;;;;;;5032606;28;20055;-72
2022/05/08 12:24:21;;;;;;;6.00;2.65;;;16.20;97.50;;;;;;5032006;28;20048;-71
2022/05/08 12:26:47;;;;;;;13.32;3.58;;;16.10;97.00;;;;;;5032827;28;20032;-71
2022/05/08 12:29:23;;;;;;;8.48;2.53;;;16.40;97.80;;;;;;5032985;28;20459;-71
2022/05/08 12:31:50;;;;;;;8.88;3.28;;;16.20;97.60;;;;;;5016807;28;20025;-71
2022/05/08 12:34:17;;;;;;;6.88;2.75;;;16.30;98.30;;;;;;5015183;28;20075;-71
2022/05/08 12:36:43;;;;;;;11.00;3.33;;;16.30;97.30;;;;;;5025800;28;20033;-71
2022/05/08 12:39:09;;;;;;;5.97;2.70;;;16.40;97.70;;;;;;5029499;28;20113;-71
2022/05/08 12:41:36;;;;;;;6.53;2.50;;;16.50;97.60;;;;;;5021811;28;20029;-71
2022/05/08 12:44:02;;;;;;;9.18;2.80;;;16.50;97.40;;;;;;5008168;28;20061;-70
2022/05/08 12:46:28;;;;;;;9.02;3.20;;;16.50;96.70;;;;;;5005178;28;20041;-71
2022/05/08 12:49:00;;;;;;;10.27;2.90;;;16.40;97.20;;;;;;5009600;28;20474;-71
2022/05/08 12:51:26;;;;;;;3.03;2.03;;;16.50;97.30;;;;;;5015099;28;20486;-70
2022/05/08 12:53:52;;;;;;;6.90;2.42;;;16.50;96.40;;;;;;5010808;28;20030;-70
2022/05/08 12:56:19;;;;;;;15.82;5.18;;;16.50;96.60;;;;;;5011832;28;20083;-70
2022/05/08 13:01:33;;;;;;;3.55;1.85;;;16.50;96.50;;;;;;5011622;28;20044;-69
2022/05/08 13:03:59;;;;;;;5.82;2.70;;;16.60;96.50;;;;;;5027561;28;20041;-70
2022/05/08 13:06:25;;;;;;;8.32;2.63;;;16.70;96.00;;;;;;5025571;28;21369;-70
2022/05/08 13:08:50;;;;;;;9.48;2.75;;;16.80;96.10;;;;;;5009768;28;20040;-70
2022/05/08 13:11:16;;;;;;;5.85;2.45;;;16.90;96.00;;;;;;5029377;28;20013;-69
2022/05/08 13:13:41;;;;;;;14.50;2.65;;;16.90;96.20;;;;;;5025054;28;20028;-70